createdAt,value
2023-01-11T00:01:11.553Z,97391.30
2023-01-11T00:03:39.790Z,97390.02
2023-01-11T00:06:09.860Z,97393.73
2023-01-11T00:08:38.577Z,97404.05
2023-01-11T00:11:14.009Z,97407.24
2023-01-11T00:13:45.451Z,97403.89
2023-01-11T00:16:14.325Z,97403.58
2023-01-11T00:18:43.135Z,97410.11
2023-01-11T00:21:11.324Z,97422.41
2023-01-11T00:23:39.631Z,97433.42
2023-01-11T00:26:12.450Z,97437.98
2023-01-11T00:28:40.905Z,97437.23
2023-01-11T00:31:09.702Z,97429.86
2023-01-11T00:33:38.005Z,97442.62
2023-01-11T00:36:06.676Z,97456.75
2023-01-11T00:38:44.216Z,97467.54
2023-01-11T00:41:34.440Z,97478.78
2023-01-11T00:44:22.388Z,97477.13
2023-01-11T00:47:09.335Z,97473.31
2023-01-11T00:49:37.985Z,97475.05
2023-01-11T00:52:09.425Z,97469.05
2023-01-11T00:54:39.518Z,97472.31
2023-01-11T00:57:08.825Z,97472.68
2023-01-11T00:59:39.656Z,97475.05
2023-01-11T01:02:09.605Z,97467.29
2023-01-11T01:04:38.808Z,97470.02
2023-01-11T01:07:07.265Z,97472.52
2023-01-11T01:09:35.442Z,97473.83
2023-01-11T01:12:04.220Z,97472.83
2023-01-11T01:14:33.625Z,97469.80
2023-01-11T01:17:07.628Z,97461.74
2023-01-11T01:19:38.658Z,97454.02
2023-01-11T01:22:07.557Z,97460.73
2023-01-11T01:24:36.023Z,97468.55
2023-01-11T01:27:04.277Z,97478.49
2023-01-11T01:29:32.903Z,97478.80
2023-01-11T01:32:01.143Z,97475.23
2023-01-11T01:34:29.353Z,97477.05
2023-01-11T01:36:57.554Z,97488.42
2023-01-11T01:39:25.774Z,97493.28
2023-01-11T01:41:54.093Z,97489.41
2023-01-11T01:44:55.380Z,97489.55
2023-01-11T01:47:32.895Z,97502.75
2023-01-11T01:50:06.598Z,97510.27
2023-01-11T01:52:35.800Z,97510.64
2023-01-11T01:55:10.880Z,97502.52
2023-01-11T01:57:41.950Z,97497.80
2023-01-11T02:00:11.918Z,97502.04
2023-01-11T02:02:43.435Z,97506.83
2023-01-11T02:05:13.494Z,97515.49
2023-01-11T02:07:43.604Z,97518.30
2023-01-11T02:10:21.585Z,97525.81
2023-01-11T02:13:02.707Z,97526.34
2023-01-11T02:15:31.798Z,97522.84
2023-01-11T02:18:00.042Z,97526.88
2023-01-11T02:20:46.438Z,97527.03
2023-01-11T02:23:26.657Z,97533.19
2023-01-11T02:26:13.510Z,97537.52
2023-01-11T02:28:47.477Z,97543.75
2023-01-11T02:31:51.310Z,97546.70
2023-01-11T02:34:25.654Z,97545.79
2023-01-11T02:37:20.776Z,97549.89
2023-01-11T02:40:19.720Z,97555.94
2023-01-11T02:43:15.122Z,97556.68
2023-01-11T02:46:12.653Z,97563.34
2023-01-11T02:49:04.158Z,97559.83
2023-01-11T02:51:43.388Z,97553.43
2023-01-11T02:54:14.833Z,97549.77
2023-01-11T02:56:46.223Z,97547.94
2023-01-11T02:59:19.480Z,97547.48
2023-01-11T03:01:51.669Z,97556.89
2023-01-11T03:04:30.503Z,97567.05
2023-01-11T03:07:19.646Z,97570.02
2023-01-11T03:10:03.605Z,97574.67
2023-01-11T03:12:54.927Z,97570.34
2023-01-11T03:15:49.415Z,97566.63
2023-01-11T03:18:33.656Z,97560.77
2023-01-11T03:21:18.758Z,97558.39
2023-01-11T03:24:06.391Z,97563.96
2023-01-11T03:27:04.615Z,97567.67
2023-01-11T03:29:40.137Z,97566.35
2023-01-11T03:32:20.994Z,97560.41
2023-01-11T03:34:52.142Z,97566.26
2023-01-11T03:37:31.542Z,97570.55
2023-01-11T03:40:13.967Z,97570.02
2023-01-11T03:43:05.302Z,97576.47
2023-01-11T03:45:37.469Z,97563.36
2023-01-11T03:48:10.524Z,97570.00
2023-01-11T03:50:39.783Z,97583.02
2023-01-11T03:53:09.622Z,97577.73
2023-01-11T03:55:42.448Z,97582.45
2023-01-11T03:58:11.197Z,97588.61
2023-01-11T04:00:40.503Z,97584.52
2023-01-11T04:03:09.874Z,97588.92
2023-01-11T04:05:40.414Z,97594.29
2023-01-11T04:08:08.506Z,97593.96
2023-01-11T04:10:37.670Z,97597.44
2023-01-11T04:13:05.780Z,97596.61
2023-01-11T04:15:35.988Z,97589.16
2023-01-11T04:18:06.021Z,97580.48
2023-01-11T04:20:40.390Z,97582.39
2023-01-11T04:23:12.440Z,97591.86
2023-01-11T04:25:40.723Z,97593.54
2023-01-11T04:28:08.790Z,97591.48
2023-01-11T04:30:37.390Z,97593.59
2023-01-11T04:33:05.805Z,97600.33
2023-01-11T04:35:34.201Z,97599.04
2023-01-11T04:38:02.540Z,97594.34
2023-01-11T04:40:30.720Z,97594.88
2023-01-11T04:43:02.387Z,97598.96
2023-01-11T04:45:30.931Z,97609.19
2023-01-11T04:47:59.280Z,97615.48
2023-01-11T04:50:28.101Z,97619.02
2023-01-11T04:53:00.239Z,97622.01
2023-01-11T04:55:28.376Z,97623.60
2023-01-11T04:57:56.651Z,97630.01
2023-01-11T05:00:24.877Z,97626.10
2023-01-11T05:02:53.126Z,97626.40
2023-01-11T05:05:21.984Z,97626.95
2023-01-11T05:07:50.211Z,97630.48
2023-01-11T05:10:20.932Z,97632.40
2023-01-11T05:12:49.635Z,97639.29
2023-01-11T05:15:17.966Z,97645.36
2023-01-11T05:17:46.252Z,97651.34
2023-01-11T05:20:14.422Z,97655.73
2023-01-11T05:22:42.706Z,97657.50
2023-01-11T05:25:11.015Z,97657.83
2023-01-11T05:27:39.121Z,97662.47
2023-01-11T05:30:08.724Z,97668.02
2023-01-11T05:32:36.997Z,97667.19
2023-01-11T05:35:05.673Z,97672.50
2023-01-11T05:37:33.866Z,97670.54
2023-01-11T05:40:02.596Z,97675.40
2023-01-11T05:42:31.640Z,97678.06
2023-01-11T05:45:18.779Z,97678.33
2023-01-11T05:47:47.281Z,97684.17
2023-01-11T05:50:15.762Z,97686.02
2023-01-11T05:52:43.933Z,97685.06
2023-01-11T05:55:12.117Z,97684.44
2023-01-11T05:57:44.872Z,97679.64
2023-01-11T06:00:13.816Z,97679.11
2023-01-11T06:02:42.062Z,97682.83
2023-01-11T06:05:10.416Z,97679.87
2023-01-11T06:07:38.630Z,97688.61
2023-01-11T06:10:07.358Z,97692.15
2023-01-11T06:12:35.630Z,97695.33
2023-01-11T06:15:04.358Z,97698.80
2023-01-11T06:17:32.596Z,97702.41
2023-01-11T06:20:00.720Z,97704.39
2023-01-11T06:22:31.488Z,97707.45
2023-01-11T06:24:59.726Z,97719.87
2023-01-11T06:27:27.874Z,97727.60
2023-01-11T06:29:56.229Z,97726.58
2023-01-11T06:32:24.299Z,97729.38
2023-01-11T06:34:52.552Z,97735.52
2023-01-11T06:37:20.688Z,97742.48
2023-01-11T06:39:48.840Z,97749.53
2023-01-11T06:42:16.887Z,97749.30
2023-01-11T06:44:45.044Z,97754.38
2023-01-11T06:47:13.379Z,97757.80
2023-01-11T06:49:41.493Z,97759.75
2023-01-11T06:52:09.831Z,97763.32
2023-01-11T06:54:37.885Z,97766.14
2023-01-11T06:57:06.016Z,97765.42
2023-01-11T06:59:34.248Z,97763.27
2023-01-11T07:02:02.656Z,97757.91
2023-01-11T07:04:31.144Z,97763.34
2023-01-11T07:06:59.399Z,97763.52
2023-01-11T07:09:27.667Z,97769.79
2023-01-11T07:11:56.523Z,97775.98
2023-01-11T07:14:25.333Z,97775.19
2023-01-11T07:16:53.512Z,97778.64
2023-01-11T07:19:21.661Z,97792.25
2023-01-11T07:21:49.835Z,97799.42
2023-01-11T07:24:18.191Z,97805.95
2023-01-11T07:26:46.313Z,97809.83
2023-01-11T07:29:14.457Z,97810.37
2023-01-11T07:31:42.757Z,97815.69
2023-01-11T07:34:10.915Z,97827.29
2023-01-11T07:36:39.807Z,97828.36
2023-01-11T07:39:08.317Z,97822.74
2023-01-11T07:41:54.966Z,97816.61
2023-01-11T07:44:24.224Z,97813.13
2023-01-11T07:46:52.536Z,97808.12
2023-01-11T07:49:21.008Z,97814.30
2023-01-11T07:51:49.132Z,97824.27
2023-01-11T07:54:17.408Z,97828.78
2023-01-11T07:56:48.842Z,97829.66
2023-01-11T07:59:17.462Z,97826.73
2023-01-11T08:01:45.472Z,97822.15
2023-01-11T08:04:14.322Z,97816.38
2023-01-11T08:06:42.664Z,97825.77
2023-01-11T08:09:11.005Z,97829.65
2023-01-11T08:11:57.679Z,97831.48
2023-01-11T08:14:40.932Z,97833.92
2023-01-11T08:17:14.962Z,97832.67
2023-01-11T08:19:44.102Z,97842.02
2023-01-11T08:22:12.644Z,97841.58
2023-01-11T08:24:40.909Z,97848.52
2023-01-11T08:27:09.679Z,97852.20
2023-01-11T08:29:38.260Z,97849.98
2023-01-11T08:32:06.547Z,97855.42
2023-01-11T08:34:35.186Z,97859.20
2023-01-11T08:37:03.440Z,97863.74
2023-01-11T08:39:32.235Z,97863.56
2023-01-11T08:42:03.075Z,97870.35
2023-01-11T08:44:34.911Z,97873.36
2023-01-11T08:47:03.732Z,97874.60
2023-01-11T08:49:31.887Z,97887.41
2023-01-11T08:52:00.142Z,97894.57
2023-01-11T08:54:28.375Z,97895.95
2023-01-11T08:56:56.583Z,97898.08
2023-01-11T08:59:24.807Z,97900.30
2023-01-11T09:01:53.322Z,97899.30
2023-01-11T09:04:25.303Z,97904.73
2023-01-11T09:06:54.038Z,97901.96
2023-01-11T09:09:22.870Z,97890.27
2023-01-11T09:11:54.412Z,97890.66
2023-01-11T09:14:24.727Z,97888.63
2023-01-11T09:16:54.343Z,97890.56
2023-01-11T09:19:22.707Z,97887.41
2023-01-11T09:21:52.111Z,97884.59
2023-01-11T09:24:20.539Z,97879.33
2023-01-11T09:31:59.535Z,97899.52
2023-01-11T09:34:27.912Z,97893.94
2023-01-11T09:36:59.400Z,97888.02
2023-01-11T09:39:28.962Z,97872.89
2023-01-11T09:42:39.736Z,97865.21
2023-01-11T09:45:11.226Z,97862.67
2023-01-11T09:47:49.221Z,97859.98
2023-01-11T09:50:22.115Z,97861.70
2023-01-11T09:52:54.456Z,97866.79
2023-01-11T09:55:46.809Z,97880.23
2023-01-11T09:58:42.842Z,97893.76
2023-01-11T10:01:16.937Z,97896.58
2023-01-11T10:03:49.839Z,97884.02
2023-01-11T10:06:27.203Z,97882.03
2023-01-11T10:18:28.615Z,97883.60
2023-01-11T10:18:31.923Z,97884.54
2023-01-11T10:21:23.063Z,97894.29
2023-01-11T10:24:12.238Z,97891.22
2023-01-11T10:26:41.734Z,97901.61
2023-01-11T10:29:45.714Z,97909.73
2023-01-11T10:32:44.130Z,97911.34
2023-01-11T10:35:47.921Z,97904.27
2023-01-11T10:38:57.543Z,97904.32
2023-01-11T10:41:46.811Z,97909.02
2023-01-11T10:44:31.397Z,97905.82
2023-01-11T10:47:02.319Z,97908.31
2023-01-11T10:49:47.186Z,97902.89
2023-01-11T10:52:41.701Z,97898.25
2023-01-11T10:55:40.109Z,97896.60
2023-01-11T10:58:39.053Z,97895.10
2023-01-11T11:01:13.526Z,97890.34
2023-01-11T11:04:04.547Z,97885.44
2023-01-11T11:10:57.578Z,97884.56
2023-01-11T11:13:43.307Z,97881.61
2023-01-11T11:17:44.254Z,97879.13
2023-01-11T11:23:53.707Z,97884.70
2023-01-11T11:27:00.187Z,97890.04
2023-01-11T11:30:06.858Z,97899.42
2023-01-11T11:33:01.149Z,97900.35
2023-01-11T11:35:30.961Z,97902.70
2023-01-11T11:37:59.692Z,97898.26
2023-01-11T11:41:22.744Z,97891.39
2023-01-11T11:44:32.171Z,97883.77
2023-01-11T11:47:27.247Z,97886.80
2023-01-11T11:50:43.184Z,97902.20
2023-01-11T11:53:56.412Z,97905.10
2023-01-11T11:56:58.789Z,97904.73
2023-01-11T11:59:36.757Z,97905.62
2023-01-11T12:02:18.056Z,97903.53
2023-01-11T12:04:48.843Z,97905.08
2023-01-11T12:07:21.198Z,97903.98
2023-01-11T12:10:08.309Z,97903.65
2023-01-11T12:13:07.553Z,97904.91
2023-01-11T12:15:38.036Z,97901.80
2023-01-11T12:18:31.533Z,97900.41
2023-01-11T12:21:52.486Z,97908.90
2023-01-11T12:24:24.104Z,97912.33
2023-01-11T12:27:13.169Z,97911.68
2023-01-11T12:29:56.703Z,97906.27
2023-01-11T12:32:27.532Z,97902.75
2023-01-11T12:35:22.931Z,97901.17
2023-01-11T12:38:00.355Z,97904.69
2023-01-11T12:41:08.533Z,97915.98
2023-01-11T12:43:43.667Z,97923.79
2023-01-11T12:46:53.187Z,97928.75
2023-01-11T12:49:48.986Z,97933.84
2023-01-11T12:52:27.786Z,97926.95
2023-01-11T12:55:20.773Z,97923.83
2023-01-11T12:58:15.615Z,97925.08
2023-01-11T13:01:04.177Z,97927.03
2023-01-11T13:04:17.295Z,97926.21
2023-01-11T13:07:08.085Z,97930.40
2023-01-11T13:10:12.343Z,97934.11
2023-01-11T13:13:06.343Z,97938.05
2023-01-11T13:16:06.161Z,97943.65
2023-01-11T13:18:56.182Z,97945.58
2023-01-11T13:21:51.586Z,97943.36
2023-01-11T13:24:45.275Z,97944.58
2023-01-11T13:27:26.461Z,97945.41
2023-01-11T13:30:01.270Z,97958.73
2023-01-11T13:32:43.245Z,97962.48
2023-01-11T13:35:19.017Z,97961.79
2023-01-11T13:38:34.693Z,97959.77
2023-01-11T13:41:26.291Z,97967.35
2023-01-11T13:44:12.551Z,97968.63
2023-01-11T13:46:59.419Z,97965.80
2023-01-11T13:49:38.799Z,97961.16
2023-01-11T13:52:16.931Z,97962.08
2023-01-11T13:55:25.019Z,97963.19
2023-01-11T13:58:14.075Z,97959.27
2023-01-11T14:00:55.618Z,97962.26
2023-01-11T14:04:10.380Z,97962.63
2023-01-11T14:07:00.104Z,97958.80
2023-01-11T14:13:46.273Z,97960.55
2023-01-11T14:16:25.856Z,97960.42
2023-01-11T14:19:21.828Z,97963.08
2023-01-11T14:22:20.905Z,97963.80
2023-01-11T14:25:13.761Z,97957.27
2023-01-11T14:28:21.430Z,97949.66
2023-01-11T14:30:54.945Z,97947.86
2023-01-11T14:33:41.627Z,97946.84
2023-01-11T14:36:31.020Z,97949.48
2023-01-11T14:39:13.709Z,97952.73
2023-01-11T14:41:49.669Z,97950.02
2023-01-11T14:44:20.828Z,97944.92
2023-01-11T14:47:19.247Z,97943.52
2023-01-11T14:50:07.913Z,97946.71
2023-01-11T14:52:40.622Z,97950.65
2023-01-11T14:55:22.789Z,97958.85
2023-01-11T14:57:57.069Z,97965.60
2023-01-11T15:00:25.208Z,97970.98
2023-01-11T15:02:54.339Z,97973.38
2023-01-11T15:05:31.738Z,97978.73
2023-01-11T15:08:15.401Z,97980.77
2023-01-11T15:11:01.824Z,97976.05
2023-01-11T15:13:52.968Z,97977.33
2023-01-11T15:16:39.369Z,97974.95
2023-01-11T15:19:12.862Z,97965.41
2023-01-11T15:22:45.250Z,97961.46
2023-01-11T15:25:37.460Z,97964.98
2023-01-11T15:28:47.793Z,97973.35
2023-01-11T15:31:44.141Z,97979.41
2023-01-11T15:34:40.251Z,97982.73
2023-01-11T15:37:34.429Z,97980.29
2023-01-11T15:40:15.858Z,97982.34
2023-01-11T15:43:05.931Z,97985.54
2023-01-11T15:46:22.308Z,97984.39
2023-01-11T15:49:31.607Z,97976.39
2023-01-11T15:52:02.766Z,97973.58
2023-01-11T15:54:42.963Z,97976.80
2023-01-11T15:57:20.199Z,97976.50
2023-01-11T16:00:03.716Z,97976.60
2023-01-11T16:03:15.399Z,97980.80
2023-01-11T16:06:09.469Z,97989.73
2023-01-11T16:09:03.121Z,97991.09
2023-01-11T16:11:50.101Z,97991.60
2023-01-11T16:14:30.390Z,97992.54
2023-01-11T16:16:59.208Z,97989.22
2023-01-11T16:19:34.105Z,97990.56
2023-01-11T16:22:05.751Z,97984.89
2023-01-11T16:24:42.494Z,97985.64
2023-01-11T16:27:21.883Z,97987.30
2023-01-11T16:29:51.523Z,97988.40
2023-01-11T16:32:32.777Z,97985.55
2023-01-11T16:35:02.779Z,97984.27
2023-01-11T16:37:38.949Z,97986.16
2023-01-11T16:40:32.362Z,97990.16
2023-01-11T16:43:15.320Z,97996.02
2023-01-11T16:45:54.071Z,97997.92
2023-01-11T16:48:24.680Z,98003.40
2023-01-11T16:51:19.674Z,98004.23
2023-01-11T16:53:59.276Z,98006.87
2023-01-11T16:56:27.491Z,98011.66
2023-01-11T16:59:10.114Z,98017.61
2023-01-11T17:02:00.118Z,98026.30
2023-01-11T17:04:34.361Z,98031.20
2023-01-11T17:07:23.759Z,98033.64
2023-01-11T17:09:52.502Z,98039.86
2023-01-11T17:12:29.161Z,98041.10
2023-01-11T17:15:12.814Z,98043.75
2023-01-11T17:17:41.286Z,98048.07
2023-01-11T17:20:20.551Z,98045.54
2023-01-11T17:22:53.830Z,98049.83
2023-01-11T17:25:37.607Z,98052.61
2023-01-11T17:28:20.097Z,98049.31
2023-01-11T17:30:50.678Z,98046.50
2023-01-11T17:33:28.259Z,98046.15
2023-01-11T17:35:56.915Z,98044.62
2023-01-11T17:38:27.966Z,98049.73
2023-01-11T17:40:57.833Z,98053.63
2023-01-11T17:43:48.954Z,98057.50
2023-01-11T17:46:26.610Z,98057.11
2023-01-11T17:49:00.124Z,98059.27
2023-01-11T17:51:34.085Z,98057.17
2023-01-11T17:54:02.486Z,98063.95
2023-01-11T17:56:33.405Z,98072.75
2023-01-11T17:59:16.829Z,98069.61
2023-01-11T18:01:50.742Z,98068.17
2023-01-11T18:04:21.793Z,98066.96
2023-01-11T18:06:54.049Z,98068.71
2023-01-11T18:09:29.113Z,98067.73
2023-01-11T18:12:18.960Z,98070.39
2023-01-11T18:14:53.350Z,98069.21
2023-01-11T18:17:27.803Z,98077.65
2023-01-11T18:19:56.629Z,98082.84
2023-01-11T18:22:42.839Z,98082.59
2023-01-11T18:25:29.391Z,98083.52
2023-01-11T18:28:17.739Z,98080.73
2023-01-11T18:30:54.869Z,98075.66
2023-01-11T18:33:25.432Z,98081.82
2023-01-11T18:36:03.216Z,98081.59
2023-01-11T18:38:34.425Z,98077.80
2023-01-11T18:41:37.811Z,98078.05
2023-01-11T18:44:09.245Z,98079.60
2023-01-11T18:46:37.766Z,98075.77
2023-01-11T18:49:06.052Z,98069.95
2023-01-11T18:51:41.720Z,98064.56
2023-01-11T18:54:16.105Z,98060.37
2023-01-11T18:56:44.601Z,98056.36
2023-01-11T18:59:12.824Z,98058.81
2023-01-11T19:01:54.545Z,98060.35
2023-01-11T19:04:29.896Z,98059.41
2023-01-11T19:06:58.164Z,98068.08
2023-01-11T19:09:26.320Z,98068.67
2023-01-11T19:11:54.821Z,98073.35
2023-01-11T19:14:23.089Z,98078.50
2023-01-11T19:16:51.188Z,98079.48
2023-01-11T19:19:19.512Z,98086.66
2023-01-11T19:21:47.965Z,98095.34
2023-01-11T19:24:16.104Z,98101.39
2023-01-11T19:26:44.340Z,98103.77
2023-01-11T19:29:17.457Z,98111.75
2023-01-11T19:31:47.149Z,98112.74
2023-01-11T19:34:15.955Z,98117.23
2023-01-11T19:36:44.534Z,98123.99
2023-01-11T19:39:12.847Z,98124.20
2023-01-11T19:42:00.023Z,98120.43
2023-01-11T19:44:33.434Z,98124.53
2023-01-11T19:47:12.388Z,98120.46
2023-01-11T19:49:42.615Z,98122.73
2023-01-11T19:52:14.228Z,98123.61
2023-01-11T19:54:43.629Z,98127.38
2023-01-11T19:57:14.568Z,98133.05
2023-01-11T19:59:43.006Z,98134.17
2023-01-11T20:02:13.182Z,98129.92
2023-01-11T20:04:42.369Z,98125.52
2023-01-11T20:07:12.085Z,98123.39
2023-01-11T20:09:40.604Z,98127.93
2023-01-11T20:12:11.185Z,98133.63
2023-01-11T20:14:40.833Z,98138.26
2023-01-11T20:17:09.202Z,98136.95
2023-01-11T20:19:37.506Z,98131.73
2023-01-11T20:22:06.011Z,98125.30
2023-01-11T20:24:34.441Z,98120.34
2023-01-11T20:27:03.782Z,98122.58
2023-01-11T20:29:32.009Z,98122.02
2023-01-11T20:32:18.660Z,98121.08
2023-01-11T20:34:48.426Z,98125.71
2023-01-11T20:37:16.753Z,98132.80
2023-01-11T20:39:44.979Z,98138.45
2023-01-11T20:42:13.271Z,98138.05
2023-01-11T20:44:41.598Z,98142.44
2023-01-11T20:47:09.891Z,98137.43
2023-01-11T20:49:38.274Z,98138.89
2023-01-11T20:52:06.593Z,98146.95
2023-01-11T20:54:34.905Z,98154.21
2023-01-11T20:57:05.747Z,98168.75
2023-01-11T20:59:35.067Z,98175.73
2023-01-11T21:02:07.642Z,98185.15
2023-01-11T21:04:36.005Z,98193.20
2023-01-11T21:07:04.192Z,98196.46
2023-01-11T21:09:32.500Z,98193.20
2023-01-11T21:12:00.679Z,98184.83
2023-01-11T21:14:28.880Z,98178.52
2023-01-11T21:16:58.023Z,98172.21
2023-01-11T21:19:26.851Z,98174.36
2023-01-11T21:21:55.279Z,98180.18
2023-01-11T21:24:25.209Z,98181.54
2023-01-11T21:26:53.374Z,98175.68
2023-01-11T21:29:21.991Z,98177.93
2023-01-11T21:31:50.158Z,98181.06
2023-01-11T21:34:18.483Z,98185.60
2023-01-11T21:36:46.846Z,98187.77
2023-01-11T21:39:16.957Z,98183.74
2023-01-11T21:42:00.329Z,98184.15
2023-01-11T21:44:33.971Z,98186.23
2023-01-11T21:47:05.274Z,98189.59
2023-01-11T21:49:33.766Z,98192.36
2023-01-11T21:52:02.051Z,98191.92
2023-01-11T21:54:30.389Z,98184.39
2023-01-11T21:56:58.630Z,98180.88
2023-01-11T21:59:30.590Z,98173.80
2023-01-11T22:01:58.857Z,98163.50
2023-01-11T22:04:27.104Z,98158.20
2023-01-11T22:07:00.289Z,98156.67
2023-01-11T22:09:28.974Z,98153.39
2023-01-11T22:11:57.230Z,98148.26
2023-01-11T22:14:25.416Z,98151.17
2023-01-11T22:16:54.106Z,98154.99
2023-01-11T22:19:22.694Z,98155.61
2023-01-11T22:21:50.982Z,98147.50
2023-01-11T22:24:22.580Z,98147.74
2023-01-11T22:26:50.860Z,98148.02
2023-01-11T22:29:20.272Z,98148.11
2023-01-11T22:31:51.747Z,98150.04
2023-01-11T22:34:22.053Z,98160.72
2023-01-11T22:36:54.273Z,98162.59
2023-01-11T22:39:22.665Z,98156.12
2023-01-11T22:41:51.478Z,98157.88
2023-01-11T22:44:19.923Z,98156.30
2023-01-11T22:46:48.241Z,98157.68
2023-01-11T22:49:17.634Z,98154.84
2023-01-11T22:51:45.870Z,98157.16
2023-01-11T22:54:14.291Z,98162.91
2023-01-11T22:56:42.651Z,98168.86
2023-01-11T22:59:11.288Z,98169.94
2023-01-11T23:01:41.556Z,98166.55
2023-01-11T23:04:16.123Z,98164.54
2023-01-11T23:06:47.312Z,98165.98
2023-01-11T23:09:18.581Z,98169.63
2023-01-11T23:12:05.646Z,98176.61
2023-01-11T23:14:34.081Z,98179.55
2023-01-11T23:17:10.441Z,98180.39
2023-01-11T23:19:40.847Z,98177.08
2023-01-11T23:22:09.722Z,98169.95
2023-01-11T23:24:41.363Z,98162.67
2023-01-11T23:27:09.876Z,98146.69
2023-01-11T23:29:38.209Z,98139.20
2023-01-11T23:32:06.736Z,98134.45
2023-01-11T23:34:34.818Z,98132.36
2023-01-11T23:37:03.081Z,98144.66
2023-01-11T23:39:32.940Z,98161.27
2023-01-11T23:42:19.734Z,98170.89
2023-01-11T23:44:48.040Z,98172.25
2023-01-11T23:47:29.823Z,98171.61
2023-01-11T23:50:00.980Z,98171.95
2023-01-11T23:52:31.785Z,98174.95
2023-01-11T23:55:00.299Z,98176.80
2023-01-11T23:57:28.586Z,98170.20
2023-01-11T23:59:59.738Z,98167.05
